createdAt,value
2017-04-07T00:00:37.025Z,77.80
2017-04-07T00:01:36.809Z,78.00
2017-04-07T00:02:36.217Z,78.20
2017-04-07T00:03:37.593Z,78.30
2017-04-07T00:04:40.475Z,78.00
2017-04-07T00:05:40.736Z,78.30
2017-04-07T00:06:43.340Z,78.40
2017-04-07T00:07:46.621Z,78.40
2017-04-07T00:08:49.017Z,78.90
2017-04-07T00:09:49.744Z,78.90
2017-04-07T00:10:48.738Z,79.40
2017-04-07T00:11:48.359Z,79.30
2017-04-07T00:12:49.825Z,79.40
2017-04-07T00:13:52.677Z,79.60
2017-04-07T00:14:55.045Z,79.90
2017-04-07T00:15:55.136Z,80.00
2017-04-07T00:16:53.777Z,80.00
2017-04-07T00:17:53.390Z,79.80
2017-04-07T00:18:52.541Z,79.70
2017-04-07T00:19:51.209Z,79.40
2017-04-07T00:20:51.329Z,79.80
2017-04-07T00:21:49.931Z,79.80
2017-04-07T00:22:53.805Z,79.90
2017-04-07T00:23:53.038Z,79.90
2017-04-07T00:24:51.863Z,79.70
2017-04-07T00:25:54.111Z,79.40
2017-04-07T00:26:53.089Z,79.40
2017-04-07T00:27:51.505Z,79.20
2017-04-07T00:28:50.590Z,78.90
2017-04-07T00:29:50.096Z,79.10
2017-04-07T00:30:49.564Z,79.10
2017-04-07T00:31:48.552Z,79.20
2017-04-07T00:32:47.466Z,79.20
2017-04-07T00:33:46.804Z,79.70
2017-04-07T00:34:47.664Z,79.90
2017-04-07T00:35:51.258Z,80.10
2017-04-07T00:36:53.899Z,80.30
2017-04-07T00:37:53.722Z,80.60
2017-04-07T00:38:52.323Z,80.60
2017-04-07T00:39:51.688Z,80.70
2017-04-07T00:40:50.543Z,80.60
2017-04-07T00:41:50.891Z,80.70
2017-04-07T00:42:53.630Z,80.40
2017-04-07T00:43:55.287Z,80.40
2017-04-07T00:44:57.916Z,80.40
2017-04-07T00:45:57.736Z,79.60
2017-04-07T00:46:56.988Z,79.60
2017-04-07T00:47:56.604Z,79.80
2017-04-07T00:48:55.445Z,79.90
2017-04-07T00:49:55.622Z,79.90
2017-04-07T00:50:54.550Z,79.90
2017-04-07T00:51:53.510Z,80.10
2017-04-07T00:52:53.306Z,80.60
2017-04-07T00:53:55.513Z,80.70
2017-04-07T00:54:54.691Z,80.50
2017-04-07T00:55:55.622Z,80.80
2017-04-07T00:56:57.788Z,80.80
2017-04-07T00:57:57.828Z,80.30
2017-04-07T00:58:57.323Z,80.60
2017-04-07T00:59:59.725Z,80.30
2017-04-07T01:00:59.423Z,80.40
2017-04-07T01:01:59.128Z,80.40
2017-04-07T01:03:00.375Z,79.60
2017-04-07T01:03:59.907Z,79.60
2017-04-07T01:05:01.311Z,79.70
2017-04-07T01:06:00.310Z,80.30
2017-04-07T01:06:59.469Z,80.30
2017-04-07T01:07:59.632Z,80.00
2017-04-07T01:09:01.593Z,80.60
2017-04-07T01:10:01.020Z,81.10
2017-04-07T01:10:59.927Z,81.00
2017-04-07T01:12:01.810Z,80.30
2017-04-07T01:13:00.738Z,80.10
2017-04-07T01:14:00.211Z,80.30
2017-04-07T01:14:59.467Z,80.30
2017-04-07T01:15:58.606Z,80.60
2017-04-07T01:17:00.417Z,80.80
2017-04-07T01:17:59.197Z,80.80
2017-04-07T01:18:58.931Z,81.00
2017-04-07T01:19:59.807Z,80.90
2017-04-07T01:20:58.591Z,80.10
2017-04-07T01:21:57.112Z,79.50
2017-04-07T01:22:56.131Z,79.60
2017-04-07T01:23:57.898Z,80.50
2017-04-07T01:24:57.498Z,80.00
2017-04-07T01:25:56.395Z,80.50
2017-04-07T01:26:55.960Z,80.50
2017-04-07T01:27:56.081Z,80.50
2017-04-07T01:28:55.682Z,80.40
2017-04-07T01:29:54.628Z,80.20
2017-04-07T01:30:57.297Z,79.90
2017-04-07T01:31:56.448Z,79.80
2017-04-07T01:32:55.272Z,79.70
2017-04-07T01:33:54.360Z,79.30
2017-04-07T01:34:52.862Z,79.40
2017-04-07T01:35:53.897Z,79.20
2017-04-07T01:36:52.743Z,79.30
2017-04-07T01:37:52.199Z,79.50
2017-04-07T01:38:54.522Z,79.50
2017-04-07T01:39:57.603Z,79.20
2017-04-07T01:40:57.783Z,79.20
2017-04-07T01:41:56.691Z,79.70
2017-04-07T01:42:56.790Z,80.00
2017-04-07T01:43:56.308Z,80.20
2017-04-07T01:44:55.218Z,80.20
2017-04-07T01:45:56.375Z,80.20
2017-04-07T01:46:55.339Z,80.30
2017-04-07T01:47:55.916Z,80.30
2017-04-07T01:48:55.274Z,80.50
2017-04-07T01:49:53.638Z,80.50
2017-04-07T01:50:53.430Z,80.80
2017-04-07T01:51:51.943Z,80.80
2017-04-07T01:52:52.451Z,80.80
2017-04-07T01:53:51.659Z,80.80
2017-04-07T01:54:53.398Z,80.60
2017-04-07T01:55:52.268Z,80.90
2017-04-07T01:56:52.956Z,80.70
2017-04-07T01:57:52.951Z,80.80
2017-04-07T01:58:52.856Z,80.90
2017-04-07T01:59:53.850Z,80.90
2017-04-07T02:00:54.240Z,80.50
2017-04-07T02:01:55.948Z,80.00
2017-04-07T02:02:57.222Z,79.70
2017-04-07T02:03:56.108Z,79.50
2017-04-07T02:04:55.881Z,78.90
2017-04-07T02:05:54.976Z,79.60
2017-04-07T02:06:53.810Z,79.30
2017-04-07T02:07:54.904Z,79.00
2017-04-07T02:08:53.444Z,79.00
2017-04-07T02:09:52.347Z,78.80
2017-04-07T02:10:53.496Z,78.30
2017-04-07T02:11:55.342Z,78.30
2017-04-07T02:12:54.282Z,78.70
2017-04-07T02:13:54.968Z,78.30
2017-04-07T02:14:53.882Z,78.20
2017-04-07T02:15:52.730Z,78.20
2017-04-07T02:16:57.445Z,78.10
2017-04-07T02:17:58.737Z,78.80
2017-04-07T02:19:00.488Z,79.60
2017-04-07T02:20:00.887Z,79.10
2017-04-07T02:21:04.112Z,79.20
2017-04-07T02:22:05.124Z,79.20
2017-04-07T02:23:03.785Z,79.00
2017-04-07T02:24:02.574Z,78.80
2017-04-07T02:25:01.474Z,79.60
2017-04-07T02:26:00.358Z,80.10
2017-04-07T02:26:59.656Z,80.80
2017-04-07T02:27:59.434Z,81.00
2017-04-07T02:28:59.330Z,81.20
2017-04-07T02:29:58.331Z,81.40
2017-04-07T02:30:57.423Z,81.90
2017-04-07T02:31:56.313Z,82.30
2017-04-07T02:32:55.439Z,82.30
2017-04-07T02:33:57.515Z,82.30
2017-04-07T02:34:57.043Z,81.70
2017-04-07T02:35:56.015Z,82.10
2017-04-07T02:36:54.823Z,81.80
2017-04-07T02:37:53.747Z,81.20
2017-04-07T02:38:53.275Z,81.20
2017-04-07T02:39:55.070Z,82.10
2017-04-07T02:40:54.258Z,82.30
2017-04-07T02:41:53.145Z,82.30
2017-04-07T02:42:52.479Z,81.70
2017-04-07T02:43:53.325Z,81.70
2017-04-07T02:44:56.422Z,80.50
2017-04-07T02:45:55.373Z,80.10
2017-04-07T02:46:54.900Z,80.10
2017-04-07T02:47:54.086Z,80.40
2017-04-07T02:48:52.590Z,80.40
2017-04-07T02:49:51.588Z,80.80
2017-04-07T02:50:51.229Z,81.20
2017-04-07T02:51:50.628Z,81.90
2017-04-07T02:52:50.219Z,81.90
2017-04-07T02:53:49.031Z,82.70
2017-04-07T02:54:47.533Z,82.70
2017-04-07T02:55:47.354Z,83.10
2017-04-07T02:56:49.305Z,83.10
2017-04-07T02:57:48.641Z,83.00
2017-04-07T02:58:47.640Z,82.80
2017-04-07T02:59:46.555Z,82.50
2017-04-07T03:00:45.410Z,82.50
2017-04-07T03:01:46.767Z,82.80
2017-04-07T03:02:49.730Z,83.10
2017-04-07T03:03:50.514Z,83.40
2017-04-07T03:04:53.082Z,83.30
2017-04-07T03:05:53.897Z,83.20
2017-04-07T03:06:52.993Z,82.60
2017-04-07T03:07:52.402Z,81.80
2017-04-07T03:08:51.221Z,81.80
2017-04-07T03:09:52.805Z,82.70
2017-04-07T03:10:54.555Z,83.00
2017-04-07T03:11:53.070Z,83.00
2017-04-07T03:12:52.265Z,83.40
2017-04-07T03:13:51.564Z,83.50
2017-04-07T03:14:53.054Z,83.40
2017-04-07T03:15:52.171Z,83.50
2017-04-07T03:16:53.212Z,83.50
2017-04-07T03:17:55.417Z,83.80
2017-04-07T03:18:54.722Z,84.00
2017-04-07T03:19:57.711Z,84.00
2017-04-07T03:20:57.479Z,84.50
2017-04-07T03:21:57.098Z,84.50
2017-04-07T03:22:57.865Z,84.60
2017-04-07T03:23:57.749Z,84.70
2017-04-07T03:25:00.444Z,85.10
2017-04-07T03:25:59.484Z,85.20
2017-04-07T03:26:59.414Z,85.30
2017-04-07T03:28:00.857Z,85.30
2017-04-07T03:29:03.598Z,85.40
2017-04-07T03:30:02.552Z,85.40
2017-04-07T03:31:01.596Z,84.90
2017-04-07T03:32:02.354Z,84.90
2017-04-07T03:33:04.839Z,84.00
2017-04-07T03:34:04.943Z,84.20
2017-04-07T03:35:04.256Z,84.40
2017-04-07T03:36:03.834Z,84.40
2017-04-07T03:37:06.047Z,84.80
2017-04-07T03:38:09.366Z,84.90
2017-04-07T03:39:07.972Z,84.90
2017-04-07T03:40:07.076Z,84.70
2017-04-07T03:41:07.850Z,84.30
2017-04-07T03:42:06.513Z,84.30
2017-04-07T03:43:05.454Z,84.60
2017-04-07T03:44:05.395Z,84.70
2017-04-07T03:45:04.706Z,84.90
2017-04-07T03:46:03.932Z,85.00
2017-04-07T03:47:03.098Z,85.20
2017-04-07T03:48:01.572Z,85.10
2017-04-07T03:49:00.415Z,85.30
2017-04-07T03:50:00.729Z,85.60
2017-04-07T03:51:00.035Z,85.90
2017-04-07T03:52:04.339Z,85.90
2017-04-07T03:53:04.031Z,86.00
2017-04-07T03:54:04.058Z,86.00
2017-04-07T03:55:04.435Z,86.30
2017-04-07T03:56:02.965Z,86.30
2017-04-07T03:57:02.349Z,86.40
2017-04-07T03:58:01.456Z,86.40
2017-04-07T03:59:01.175Z,86.30
2017-04-07T04:00:02.556Z,86.10
2017-04-07T04:01:02.064Z,86.30
2017-04-07T04:02:03.478Z,86.30
2017-04-07T04:03:02.821Z,86.30
2017-04-07T04:04:02.793Z,86.40
2017-04-07T04:05:02.092Z,86.30
2017-04-07T04:06:01.574Z,86.30
2017-04-07T04:07:00.656Z,85.10
2017-04-07T04:08:00.428Z,85.10
2017-04-07T04:08:59.612Z,85.10
2017-04-07T04:09:59.203Z,85.50
2017-04-07T04:10:58.332Z,85.30
2017-04-07T04:11:59.141Z,85.50
2017-04-07T04:12:58.583Z,85.60
2017-04-07T04:13:58.002Z,85.40
2017-04-07T04:14:57.039Z,85.50
2017-04-07T04:15:56.170Z,85.70
2017-04-07T04:16:55.280Z,85.70
2017-04-07T04:17:54.988Z,85.70
2017-04-07T04:18:53.922Z,85.70
2017-04-07T04:19:53.624Z,85.00
2017-04-07T04:20:53.125Z,85.10
2017-04-07T04:21:52.878Z,84.20
2017-04-07T04:22:53.787Z,84.20
2017-04-07T04:23:56.290Z,84.00
2017-04-07T04:24:55.804Z,84.00
2017-04-07T04:25:58.488Z,84.80
2017-04-07T04:26:57.726Z,85.20
2017-04-07T04:27:57.593Z,85.10
2017-04-07T04:28:58.547Z,85.30
2017-04-07T04:29:58.972Z,85.30
2017-04-07T04:31:01.945Z,84.20
2017-04-07T04:32:02.102Z,84.20
2017-04-07T04:33:01.332Z,83.80
2017-04-07T04:34:03.604Z,83.20
2017-04-07T04:35:02.441Z,83.20
2017-04-07T04:36:05.094Z,82.50
2017-04-07T04:37:04.245Z,82.40
2017-04-07T04:38:05.305Z,82.50
2017-04-07T04:39:05.762Z,82.80
2017-04-07T04:40:04.570Z,82.80
2017-04-07T04:41:03.833Z,83.00
2017-04-07T04:42:03.681Z,83.30
2017-04-07T04:43:02.718Z,83.20
2017-04-07T04:44:04.588Z,83.60
2017-04-07T04:45:03.991Z,83.60
2017-04-07T04:46:03.204Z,83.40
2017-04-07T04:47:04.781Z,83.40
2017-04-07T04:48:05.557Z,82.70
2017-04-07T04:49:07.973Z,83.00
2017-04-07T04:50:08.866Z,83.00
2017-04-07T04:51:10.294Z,81.90
2017-04-07T04:52:12.505Z,81.70
2017-04-07T04:53:11.972Z,81.90
2017-04-07T04:54:12.984Z,82.10
2017-04-07T04:55:12.596Z,82.10
2017-04-07T04:56:12.122Z,81.40
2017-04-07T04:57:10.913Z,81.40
2017-04-07T04:58:09.567Z,80.70
2017-04-07T04:59:10.289Z,80.70
2017-04-07T05:00:09.659Z,81.20
2017-04-07T05:01:10.172Z,81.20
2017-04-07T05:02:13.365Z,81.60
2017-04-07T05:03:12.473Z,81.60
2017-04-07T05:04:11.821Z,81.70
2017-04-07T05:05:11.902Z,80.90
2017-04-07T05:06:11.490Z,80.60
2017-04-07T05:07:10.522Z,81.00
2017-04-07T05:08:10.800Z,81.70
2017-04-07T05:09:11.948Z,82.40
2017-04-07T05:10:11.325Z,82.70
2017-04-07T05:11:14.133Z,83.20
2017-04-07T05:12:17.411Z,83.50
2017-04-07T05:13:16.497Z,83.80
2017-04-07T05:14:15.666Z,84.20
2017-04-07T05:15:15.409Z,84.20
2017-04-07T05:16:15.775Z,83.70
2017-04-07T05:17:14.575Z,83.70
2017-04-07T05:18:13.960Z,83.80
2017-04-07T05:19:13.076Z,84.20
2017-04-07T05:20:11.801Z,84.20
2017-04-07T05:21:10.907Z,84.10
2017-04-07T05:22:11.864Z,84.10
2017-04-07T05:23:11.471Z,84.20
2017-04-07T05:24:11.758Z,84.30
2017-04-07T05:25:11.604Z,84.40
2017-04-07T05:26:16.424Z,84.50
2017-04-07T05:27:17.889Z,84.40
2017-04-07T05:28:16.648Z,84.50
2017-04-07T05:29:15.706Z,84.40
2017-04-07T05:30:15.151Z,84.40
2017-04-07T05:31:14.490Z,84.00
2017-04-07T05:32:13.573Z,84.10
2017-04-07T05:33:12.871Z,83.70
2017-04-07T05:34:12.014Z,83.70
2017-04-07T05:35:13.322Z,83.50
2017-04-07T05:36:12.472Z,83.20
2017-04-07T05:37:20.914Z,82.50
2017-04-07T05:38:34.324Z,82.80
2017-04-07T05:40:16.110Z,83.50
2017-04-07T05:42:48.838Z,83.90
2017-04-07T05:43:49.716Z,83.80
2017-04-07T05:44:49.931Z,84.00
2017-04-07T05:45:48.757Z,84.00
2017-04-07T05:46:47.915Z,83.00
2017-04-07T05:47:47.359Z,82.60
2017-04-07T05:48:46.719Z,83.00
2017-04-07T05:49:47.198Z,82.40
2017-04-07T05:50:46.012Z,82.40
2017-04-07T05:51:47.356Z,81.50
2017-04-07T05:52:47.751Z,81.90
2017-04-07T05:53:50.550Z,81.90
2017-04-07T05:54:52.764Z,81.30
2017-04-07T05:55:52.606Z,80.50
2017-04-07T05:56:53.716Z,80.50
2017-04-07T05:57:55.537Z,81.00
2017-04-07T05:58:59.645Z,81.00
2017-04-07T06:00:02.009Z,80.90
2017-04-07T06:01:00.754Z,80.90
2017-04-07T06:02:03.290Z,81.40
2017-04-07T06:03:02.465Z,81.00
2017-04-07T06:04:01.705Z,81.20
2017-04-07T06:05:03.737Z,81.20
2017-04-07T06:06:02.605Z,81.30
2017-04-07T06:07:05.340Z,81.00
2017-04-07T06:08:05.577Z,80.40
2017-04-07T06:09:08.701Z,81.00
2017-04-07T06:10:08.771Z,81.20
2017-04-07T06:11:08.009Z,81.20
2017-04-07T06:12:07.558Z,81.20
2017-04-07T06:13:07.090Z,81.30
2017-04-07T06:14:07.329Z,81.30
2017-04-07T06:15:09.570Z,80.90
2017-04-07T06:16:09.446Z,81.10
2017-04-07T06:17:09.997Z,80.90
2017-04-07T06:18:09.652Z,80.40
2017-04-07T06:19:08.779Z,80.50
2017-04-07T06:20:07.783Z,80.10
2017-04-07T06:21:10.179Z,80.20
2017-04-07T06:22:09.424Z,80.20
2017-04-07T06:23:11.783Z,80.20
2017-04-07T06:24:11.435Z,80.50
2017-04-07T06:25:10.771Z,79.80
2017-04-07T06:26:16.196Z,79.50
2017-04-07T06:27:15.358Z,79.20
2017-04-07T06:28:14.463Z,78.80
2017-04-07T06:29:14.188Z,78.80
2017-04-07T06:30:14.757Z,78.70
2017-04-07T06:31:18.299Z,78.70
2017-04-07T06:32:18.807Z,78.20
2017-04-07T06:33:18.619Z,78.10
2017-04-07T06:34:21.316Z,77.70
2017-04-07T06:35:21.811Z,77.60
2017-04-07T06:36:22.004Z,77.50
2017-04-07T06:37:20.811Z,77.50
2017-04-07T06:38:23.225Z,77.50
2017-04-07T06:39:25.404Z,77.40
2017-04-07T06:40:27.433Z,77.40
2017-04-07T06:41:30.271Z,77.10
2017-04-07T06:42:33.055Z,77.00
2017-04-07T06:43:35.859Z,77.00
2017-04-07T06:44:38.625Z,76.90
2017-04-07T06:45:38.754Z,76.60
2017-04-07T06:46:38.036Z,76.60
2017-04-07T06:47:37.714Z,76.60
2017-04-07T06:48:37.636Z,77.00
2017-04-07T06:49:37.093Z,76.60
2017-04-07T06:50:36.820Z,76.70
2017-04-07T06:51:36.498Z,76.40
2017-04-07T06:52:36.924Z,76.10
2017-04-07T06:53:35.671Z,76.10
2017-04-07T06:54:34.664Z,75.90
2017-04-07T06:55:34.762Z,75.90
2017-04-07T06:56:33.866Z,75.70
2017-04-07T06:57:33.104Z,75.50
2017-04-07T06:58:35.675Z,74.70
2017-04-07T06:59:34.658Z,74.50
2017-04-07T07:00:36.143Z,74.30
2017-04-07T07:01:35.224Z,74.30
2017-04-07T07:02:34.476Z,74.70
2017-04-07T07:03:33.713Z,74.90
2017-04-07T07:04:36.855Z,74.70
2017-04-07T07:05:36.320Z,74.60
2017-04-07T07:06:36.331Z,74.20
2017-04-07T07:07:37.516Z,74.40
2017-04-07T07:08:36.973Z,74.30
2017-04-07T07:09:37.228Z,74.20
2017-04-07T07:10:36.715Z,74.20
2017-04-07T07:11:36.860Z,74.10
2017-04-07T07:12:35.989Z,74.20
2017-04-07T07:13:35.915Z,73.80
2017-04-07T07:14:34.656Z,73.80
2017-04-07T07:15:34.962Z,73.70
2017-04-07T15:48:19.288Z,64.50
2017-04-07T15:49:18.155Z,64.80
2017-04-07T15:50:16.937Z,64.80
2017-04-07T15:51:15.716Z,64.30
2017-04-07T15:52:14.500Z,64.40
2017-04-07T15:53:12.968Z,64.40
2017-04-07T15:54:11.871Z,64.50
2017-04-07T15:55:10.980Z,65.00
2017-04-07T15:56:09.987Z,64.60
2017-04-07T15:57:08.734Z,64.30
2017-04-07T15:58:08.732Z,64.20
2017-04-07T15:59:07.742Z,64.50
2017-04-07T16:00:07.155Z,64.70
2017-04-07T16:01:06.129Z,64.70
2017-04-07T16:02:04.894Z,64.50
2017-04-07T16:03:03.309Z,64.50
2017-04-07T16:04:02.065Z,65.00
2017-04-07T16:05:02.129Z,64.80
2017-04-07T16:06:01.395Z,64.80
2017-04-07T16:07:00.210Z,64.40
2017-04-07T16:07:59.336Z,64.60
2017-04-07T16:08:58.084Z,64.80
2017-04-07T16:09:57.116Z,64.80
2017-04-07T16:10:55.639Z,64.80
2017-04-07T16:11:54.787Z,64.30
2017-04-07T16:12:53.898Z,64.10
2017-04-07T16:13:52.550Z,64.10
2017-04-07T16:14:51.695Z,64.30
2017-04-07T16:15:51.249Z,64.80
2017-04-07T16:16:50.179Z,64.70
2017-04-07T16:17:49.488Z,64.50
2017-04-07T16:18:48.283Z,64.50
2017-04-07T16:19:47.112Z,64.70
2017-04-07T16:20:46.195Z,64.90
2017-04-07T16:21:44.984Z,65.00
2017-04-07T16:22:43.763Z,64.80
2017-04-07T16:23:44.213Z,64.60
2017-04-07T16:24:42.976Z,64.40
2017-04-07T16:25:41.752Z,64.50
2017-04-07T16:26:40.515Z,64.40
2017-04-07T16:27:38.911Z,64.40
2017-04-07T16:28:37.686Z,64.30
2017-04-07T16:29:36.782Z,64.10
2017-04-07T16:30:35.530Z,64.20
2017-04-07T16:31:34.384Z,64.60
2017-04-07T16:32:33.241Z,64.90
2017-04-07T16:33:32.597Z,64.40
2017-04-07T16:34:31.416Z,64.70
2017-04-07T16:35:30.575Z,64.60
2017-04-07T16:36:29.372Z,64.60
2017-04-07T16:37:28.521Z,64.70
2017-04-07T16:38:27.375Z,64.90
2017-04-07T16:39:26.319Z,65.10
2017-04-07T16:40:25.426Z,65.00
2017-04-07T16:41:24.656Z,65.50
2017-04-07T16:42:23.556Z,65.40
2017-04-07T16:43:22.328Z,65.60
2017-04-07T16:44:22.062Z,65.80
2017-04-07T16:45:25.000Z,65.90
2017-04-07T16:46:27.670Z,65.50
2017-04-07T16:47:28.909Z,65.70
2017-04-07T16:48:31.271Z,65.70
2017-04-07T16:49:33.667Z,65.70
2017-04-07T16:50:32.434Z,65.40
2017-04-07T16:51:31.124Z,65.40
2017-04-07T16:52:30.087Z,65.30
2017-04-07T16:53:29.889Z,65.40
2017-04-07T16:54:29.073Z,65.60
2017-04-07T16:55:28.203Z,65.80
2017-04-07T16:56:26.626Z,65.80
2017-04-07T16:57:26.089Z,65.80
2017-04-07T16:58:24.851Z,66.00
2017-04-07T16:59:23.604Z,66.10
2017-04-07T17:00:22.048Z,66.10
2017-04-07T17:01:21.257Z,66.10
2017-04-07T17:02:20.015Z,66.00
2017-04-07T17:03:19.100Z,65.60
2017-04-07T17:04:18.348Z,65.70
2017-04-07T17:05:17.117Z,65.60
2017-04-07T17:06:15.859Z,65.80
2017-04-07T17:07:14.655Z,66.10
2017-04-07T17:08:13.442Z,66.30
2017-04-07T17:09:12.464Z,66.10
2017-04-07T17:10:11.393Z,66.30
2017-04-07T17:11:12.546Z,66.30
2017-04-07T17:12:11.623Z,66.40
2017-04-07T17:13:10.670Z,66.60
2017-04-07T17:14:10.435Z,66.60
2017-04-07T17:15:10.228Z,66.60
2017-04-07T17:16:09.325Z,66.10
2017-04-07T17:17:08.004Z,66.20
2017-04-07T17:18:07.380Z,66.20
2017-04-07T17:19:05.986Z,66.20
2017-04-07T17:20:04.679Z,66.30
2017-04-07T17:21:03.949Z,66.50
2017-04-07T17:22:02.719Z,66.50
2017-04-07T17:23:01.532Z,66.50
2017-04-07T17:24:00.284Z,66.90
2017-04-07T17:24:59.455Z,67.00
2017-04-07T17:25:58.272Z,66.70
2017-04-07T17:26:57.314Z,66.80
2017-04-07T17:27:56.086Z,66.70
2017-04-07T17:28:56.321Z,66.70
2017-04-07T17:29:55.106Z,67.10
2017-04-07T17:30:53.964Z,67.10
2017-04-07T17:31:52.331Z,67.10
2017-04-07T17:32:51.392Z,67.50
2017-04-07T17:33:50.147Z,67.40
2017-04-07T17:34:48.519Z,67.40
2017-04-07T17:35:47.359Z,67.40
2017-04-07T17:36:46.152Z,67.60
2017-04-07T17:37:44.915Z,67.40
2017-04-07T17:38:44.067Z,67.60
2017-04-07T17:39:42.829Z,67.50
2017-04-07T17:40:41.651Z,67.10
2017-04-07T17:41:40.867Z,67.30
2017-04-07T17:42:39.621Z,67.40
2017-04-07T17:43:38.596Z,67.50
2017-04-07T17:44:37.638Z,67.60
2017-04-07T17:45:36.425Z,67.90
2017-04-07T17:46:34.827Z,67.90
2017-04-07T17:47:34.460Z,67.80
2017-04-07T17:48:33.243Z,67.90
2017-04-07T17:49:32.044Z,67.90
2017-04-07T17:50:31.115Z,68.20
2017-04-07T17:51:29.883Z,68.20
2017-04-07T17:52:28.685Z,68.40
2017-04-07T17:53:27.040Z,68.40
2017-04-07T17:54:25.842Z,68.50
2017-04-07T17:55:24.656Z,68.30
2017-04-07T17:56:23.702Z,68.30
2017-04-07T17:57:22.442Z,68.60
2017-04-07T17:58:20.836Z,68.60
2017-04-07T17:59:19.808Z,68.60
2017-04-07T18:00:18.608Z,68.30
2017-04-07T18:01:17.377Z,68.40
2017-04-07T18:02:16.547Z,68.40
2017-04-07T18:03:15.393Z,68.90
2017-04-07T18:04:13.755Z,68.80
2017-04-07T18:05:12.523Z,68.80
2017-04-07T18:06:11.340Z,68.80
2017-04-07T18:07:09.731Z,68.80
2017-04-07T18:08:08.907Z,69.10
2017-04-07T18:09:07.710Z,69.30
2017-04-07T18:10:06.483Z,69.10
2017-04-07T18:11:04.844Z,69.20
2017-04-07T18:12:03.665Z,69.50
2017-04-07T18:13:02.029Z,69.50
2017-04-07T18:14:01.083Z,69.80
2017-04-07T18:14:59.873Z,69.90
2017-04-07T18:15:58.247Z,69.90
2017-04-07T18:16:56.615Z,70.20
2017-04-07T18:17:54.985Z,70.30
2017-04-07T18:18:53.381Z,70.70
2017-04-07T18:19:52.438Z,71.20
2017-04-07T18:20:51.655Z,71.20
2017-04-07T18:21:50.525Z,71.20
2017-04-07T18:22:49.318Z,71.40
2017-04-07T18:23:47.696Z,71.40
2017-04-07T18:24:46.556Z,71.00
2017-04-07T18:25:45.672Z,71.00
2017-04-07T18:26:44.481Z,70.30
2017-04-07T18:27:43.630Z,70.10
2017-04-07T18:28:42.525Z,70.10
2017-04-07T18:29:41.282Z,70.20
2017-04-07T18:30:40.098Z,70.30
2017-04-07T18:31:39.280Z,70.50
2017-04-07T18:32:37.655Z,70.50
2017-04-07T18:33:36.042Z,70.70
2017-04-07T18:34:35.603Z,70.80
2017-04-07T18:35:34.372Z,70.80
2017-04-07T18:36:33.148Z,71.00
2017-04-07T18:37:32.275Z,70.90
2017-04-07T18:38:31.039Z,70.40
2017-04-07T18:39:29.381Z,70.40
2017-04-07T18:40:28.203Z,71.00
2017-04-07T18:41:27.176Z,71.30
2017-04-07T18:42:26.245Z,71.20
2017-04-07T18:43:25.419Z,71.20
2017-04-07T18:44:24.225Z,71.20
2017-04-07T18:45:22.592Z,71.20
2017-04-07T18:46:21.387Z,71.70
2017-04-07T18:47:20.191Z,71.20
2017-04-07T18:48:18.936Z,71.40
2017-04-07T18:49:18.041Z,71.60
2017-04-07T18:50:16.878Z,71.60
2017-04-07T18:51:15.267Z,71.60
2017-04-07T18:52:14.483Z,71.60
2017-04-07T18:53:13.242Z,72.00
2017-04-07T18:54:12.025Z,71.70
2017-04-07T18:55:11.112Z,71.90
2017-04-07T18:56:09.899Z,71.80
2017-04-07T18:57:08.655Z,71.70
2017-04-07T18:58:07.417Z,71.90
2017-04-07T18:59:06.554Z,71.70
2017-04-07T19:00:05.376Z,71.90
2017-04-07T19:01:04.541Z,71.90
2017-04-07T19:02:03.366Z,71.80
2017-04-07T19:03:02.188Z,71.70
2017-04-07T19:04:00.959Z,71.30
2017-04-07T19:04:59.719Z,70.80
2017-04-07T19:05:58.082Z,70.80
2017-04-07T19:06:57.192Z,70.60
2017-04-07T19:07:56.014Z,70.70
2017-04-07T19:08:54.407Z,70.70
2017-04-07T19:09:52.774Z,70.60
2017-04-07T19:10:51.483Z,70.70
2017-04-07T19:11:50.253Z,71.00
2017-04-07T19:12:49.347Z,70.50
2017-04-07T19:13:48.125Z,71.00
2017-04-07T19:14:47.017Z,70.50
2017-04-07T19:15:46.143Z,70.70
2017-04-07T19:16:45.508Z,70.80
2017-04-07T19:17:44.896Z,71.00
2017-04-07T19:18:44.162Z,71.00
2017-04-07T19:19:42.541Z,71.00
2017-04-07T19:20:41.337Z,71.00
2017-04-07T19:21:40.068Z,71.30
2017-04-07T19:22:38.907Z,71.40
2017-04-07T19:23:38.047Z,71.20
2017-04-07T19:24:37.138Z,71.30
2017-04-07T19:25:35.918Z,71.30
2017-04-07T19:26:34.703Z,71.40
2017-04-07T19:27:33.467Z,71.50
2017-04-07T19:29:35.175Z,71.70
2017-04-07T19:30:34.300Z,71.30
2017-04-07T19:31:33.089Z,71.00
2017-04-07T19:32:31.841Z,71.20
2017-04-07T19:33:30.981Z,71.40
2017-04-07T19:34:29.349Z,71.40
2017-04-07T19:35:28.451Z,71.30
2017-04-07T19:36:27.090Z,71.30
2017-04-07T19:37:25.867Z,72.10
2017-04-07T19:38:24.638Z,71.90
2017-04-07T19:39:23.412Z,71.80
2017-04-07T19:40:22.187Z,71.70
2017-04-07T19:41:20.939Z,72.20
2017-04-07T19:42:20.032Z,72.10
2017-04-07T19:43:18.801Z,72.20
2017-04-07T19:44:17.539Z,71.70
2017-04-07T19:45:16.692Z,71.60
2017-04-07T19:46:15.580Z,72.50
2017-04-07T19:47:13.944Z,72.50
2017-04-07T19:48:13.018Z,72.30
2017-04-07T19:49:11.796Z,72.50
2017-04-07T19:50:10.552Z,72.60
2017-04-07T19:51:09.315Z,73.00
2017-04-07T19:52:08.115Z,73.00
2017-04-07T19:53:06.916Z,72.80
2017-04-07T19:54:05.987Z,72.80
2017-04-07T19:55:13.142Z,72.10
2017-04-07T19:56:11.956Z,71.50
2017-04-07T19:57:10.728Z,71.30
2017-04-07T19:58:09.483Z,71.30
2017-04-07T19:59:08.575Z,71.40
2017-04-07T20:00:07.419Z,72.00
2017-04-07T20:01:06.267Z,72.20
2017-04-07T20:02:05.004Z,71.70
2017-04-07T20:03:03.751Z,71.70
2017-04-07T20:04:02.108Z,71.70
2017-04-07T20:05:00.727Z,72.30
2017-04-07T20:05:59.083Z,72.50
2017-04-07T20:06:57.850Z,72.50
2017-04-07T20:07:56.640Z,72.40
2017-04-07T20:08:55.410Z,72.40
2017-04-07T20:09:54.180Z,72.60
2017-04-07T20:10:52.888Z,72.60
2017-04-07T20:11:51.678Z,72.30
2017-04-07T20:12:50.435Z,72.00
2017-04-07T20:13:49.176Z,72.40
2017-04-07T20:14:47.933Z,72.60
2017-04-07T20:15:47.084Z,72.80
2017-04-07T20:16:46.163Z,73.20
2017-04-07T20:17:45.340Z,72.90
2017-04-07T20:18:44.145Z,72.80
2017-04-07T20:19:42.926Z,73.20
2017-04-07T20:20:41.696Z,73.30
2017-04-07T20:21:40.055Z,73.40
2017-04-07T20:22:39.137Z,73.50
2017-04-07T20:23:37.916Z,73.20
2017-04-07T20:24:36.667Z,73.40
2017-04-07T20:25:35.441Z,73.40
2017-04-07T20:26:34.249Z,73.30
2017-04-07T20:27:33.002Z,73.10
2017-04-07T20:28:32.112Z,73.20
2017-04-07T20:29:30.902Z,73.10
2017-04-07T20:30:29.956Z,72.60
2017-04-07T20:31:29.138Z,72.00
2017-04-07T20:32:27.938Z,71.90
2017-04-07T20:33:26.742Z,71.70
2017-04-07T20:34:26.313Z,71.80
2017-04-07T20:35:25.120Z,71.80
2017-04-07T20:36:24.354Z,72.10
2017-04-07T20:37:23.131Z,71.90
2017-04-07T20:38:21.943Z,71.60
2017-04-07T20:39:20.700Z,71.90
2017-04-07T20:40:19.911Z,71.80
2017-04-07T20:41:18.676Z,72.20
2017-04-07T20:42:17.430Z,72.80
2017-04-07T20:43:15.782Z,72.80
2017-04-07T20:44:14.574Z,72.10
2017-04-07T20:45:13.312Z,72.30
2017-04-07T20:46:12.690Z,72.40
2017-04-07T20:47:11.826Z,72.40
2017-04-07T20:48:10.602Z,72.40
2017-04-07T20:49:08.950Z,72.40
2017-04-07T20:50:07.715Z,72.00
2017-04-07T20:51:06.720Z,72.00
2017-04-07T20:52:06.040Z,71.90
2017-04-07T20:53:04.807Z,72.10
2017-04-07T20:54:03.604Z,71.90
2017-04-07T20:55:02.367Z,72.10
2017-04-07T20:56:01.259Z,71.90
2017-04-07T20:57:00.323Z,72.00
2017-04-07T20:57:59.550Z,71.70
2017-04-07T20:58:58.168Z,71.70
2017-04-07T20:59:57.144Z,71.90
2017-04-07T21:00:56.308Z,72.00
2017-04-07T21:01:55.390Z,72.00
2017-04-07T21:02:54.379Z,71.90
2017-04-07T21:03:53.224Z,71.90
2017-04-07T21:04:52.006Z,71.90
2017-04-07T21:05:50.758Z,72.00
2017-04-07T21:06:49.518Z,72.10
2017-04-07T21:07:48.268Z,72.40
2017-04-07T21:08:47.106Z,72.90
2017-04-07T21:09:46.187Z,72.50
2017-04-07T21:10:44.962Z,73.10
2017-04-07T21:11:43.708Z,72.10
2017-04-07T21:12:42.072Z,72.10
2017-04-07T21:13:40.497Z,71.90
2017-04-07T21:14:39.227Z,72.10
2017-04-07T21:15:37.923Z,72.10
2017-04-07T21:16:36.687Z,72.50
2017-04-07T21:17:36.031Z,72.60
2017-04-07T21:18:34.959Z,72.90
2017-04-07T21:19:33.455Z,72.90
2017-04-07T21:20:32.295Z,73.20
2017-04-07T21:21:31.414Z,73.40
2017-04-07T21:22:30.228Z,73.80
2017-04-07T21:23:29.159Z,73.90